createdAt,value
2023-02-05T00:00:24.437Z,101134.06
2023-02-05T00:02:53.241Z,101132.50
2023-02-05T00:05:23.400Z,101128.91
2023-02-05T00:07:52.351Z,101133.72
2023-02-05T00:10:21.111Z,101131.22
2023-02-05T00:12:49.993Z,101132.44
2023-02-05T00:15:19.214Z,101126.78
2023-02-05T00:17:48.031Z,101124.84
2023-02-05T00:20:16.673Z,101122.91
2023-02-05T00:22:46.851Z,101136.19
2023-02-05T00:25:15.594Z,101137.94
2023-02-05T00:27:44.273Z,101142.75
2023-02-05T00:30:14.133Z,101151.22
2023-02-05T00:32:42.936Z,101159.50
2023-02-05T00:35:11.737Z,101160.16
2023-02-05T00:37:40.505Z,101169.13
2023-02-05T00:40:11.844Z,101169.78
2023-02-05T00:42:40.685Z,101178.28
2023-02-05T00:45:10.619Z,101183.50
2023-02-05T00:47:39.414Z,101184.38
2023-02-05T00:50:08.595Z,101198.22
2023-02-05T00:52:37.466Z,101199.94
2023-02-05T00:55:07.024Z,101195.72
2023-02-05T00:57:36.955Z,101197.13
2023-02-05T01:00:07.247Z,101199.84
2023-02-05T01:02:36.091Z,101202.38
2023-02-05T01:05:06.157Z,101197.25
2023-02-05T01:07:35.088Z,101202.06
2023-02-05T01:10:04.018Z,101196.81
2023-02-05T01:12:33.483Z,101204.13
2023-02-05T01:15:05.067Z,101199.88
2023-02-05T01:17:34.022Z,101211.63
2023-02-05T01:20:02.861Z,101205.88
2023-02-05T01:22:31.632Z,101209.91
2023-02-05T01:25:00.385Z,101216.88
2023-02-05T01:27:29.203Z,101207.81
2023-02-05T01:29:57.879Z,101210.31
2023-02-05T01:32:29.756Z,101209.44
2023-02-05T01:34:58.984Z,101210.31
2023-02-05T01:37:27.699Z,101212.06
2023-02-05T01:39:56.828Z,101208.13
2023-02-05T01:42:27.725Z,101216.22
2023-02-05T01:45:17.473Z,101211.09
2023-02-05T01:47:47.697Z,101209.91
2023-02-05T01:50:17.066Z,101204.13
2023-02-05T01:52:46.937Z,101198.78
2023-02-05T01:55:16.544Z,101208.81
2023-02-05T01:57:45.414Z,101215.44
2023-02-05T02:00:15.004Z,101214.47
2023-02-05T02:02:43.613Z,101217.78
2023-02-05T02:05:17.365Z,101229.31
2023-02-05T02:07:47.232Z,101224.09
2023-02-05T02:10:19.161Z,101221.69
2023-02-05T02:12:50.156Z,101224.31
2023-02-05T02:15:24.348Z,101229.50
2023-02-05T02:18:17.551Z,101234.53
2023-02-05T02:20:54.836Z,101234.53
2023-02-05T02:23:29.825Z,101237.81
2023-02-05T02:26:26.598Z,101237.59
2023-02-05T02:29:01.744Z,101232.56
2023-02-05T02:31:36.422Z,101236.50
2023-02-05T02:34:15.420Z,101230.19
2023-02-05T02:36:51.935Z,101236.06
2023-02-05T02:39:28.605Z,101231.72
2023-02-05T02:42:03.974Z,101245.22
2023-02-05T02:44:37.884Z,101242.63
2023-02-05T02:47:14.077Z,101231.94
2023-02-05T02:49:48.467Z,101238.91
2023-02-05T02:52:21.511Z,101236.31
2023-02-05T02:54:54.166Z,101230.84
2023-02-05T02:57:30.295Z,101234.31
2023-02-05T03:00:03.462Z,101242.63
2023-02-05T03:02:37.923Z,101249.91
2023-02-05T03:05:11.147Z,101248.94
2023-02-05T03:07:44.692Z,101253.94
2023-02-05T03:10:20.555Z,101254.47
2023-02-05T03:12:50.020Z,101264.84
2023-02-05T03:15:20.482Z,101262.44
2023-02-05T03:17:52.290Z,101260.25
2023-02-05T03:20:26.946Z,101258.94
2023-02-05T03:22:58.475Z,101264.06
2023-02-05T03:25:30.390Z,101263.72
2023-02-05T03:28:01.046Z,101262.97
2023-02-05T03:30:46.895Z,101268.31
2023-02-05T03:33:32.914Z,101265.78
2023-02-05T03:36:12.423Z,101270.47
2023-02-05T03:38:54.222Z,101269.59
2023-02-05T03:41:48.680Z,101266.56
2023-02-05T03:44:29.900Z,101263.50
2023-02-05T03:47:07.324Z,101258.59
2023-02-05T03:49:52.746Z,101259.56
2023-02-05T03:52:28.783Z,101266.97
2023-02-05T03:55:07.553Z,101265.03
2023-02-05T03:57:44.929Z,101270.91
2023-02-05T04:00:15.431Z,101267.53
2023-02-05T04:02:48.496Z,101260.69
2023-02-05T04:05:23.247Z,101270.91
2023-02-05T04:07:54.922Z,101268.94
2023-02-05T04:10:28.265Z,101264.59
2023-02-05T04:12:59.226Z,101275.91
2023-02-05T04:15:28.413Z,101273.22
2023-02-05T04:18:01.528Z,101272.66
2023-02-05T04:20:32.126Z,101274.41
2023-02-05T04:23:02.083Z,101278.09
2023-02-05T04:25:33.603Z,101278.53
2023-02-05T04:28:02.562Z,101287.25
2023-02-05T04:30:33.348Z,101292.25
2023-02-05T04:33:04.009Z,101290.09
2023-02-05T04:35:33.635Z,101295.53
2023-02-05T04:38:02.680Z,101286.16
2023-02-05T04:40:31.272Z,101290.75
2023-02-05T04:43:00.300Z,101295.31
2023-02-05T04:45:31.474Z,101294.88
2023-02-05T04:48:01.082Z,101304.44
2023-02-05T04:50:31.172Z,101308.81
2023-02-05T04:53:02.283Z,101316.00
2023-02-05T04:55:33.509Z,101318.06
2023-02-05T04:58:03.115Z,101326.00
2023-02-05T05:00:31.807Z,101315.84
2023-02-05T05:03:00.634Z,101323.38
2023-02-05T05:05:31.496Z,101324.03
2023-02-05T05:08:01.717Z,101310.50
2023-02-05T05:10:30.524Z,101308.34
2023-02-05T05:12:59.476Z,101309.44
2023-02-05T05:15:28.209Z,101312.50
2023-02-05T05:17:56.884Z,101320.13
2023-02-05T05:20:25.786Z,101325.78
2023-02-05T05:22:55.895Z,101320.78
2023-02-05T05:25:24.826Z,101315.75
2023-02-05T05:27:53.601Z,101330.13
2023-02-05T05:30:22.547Z,101331.03
2023-02-05T05:32:51.234Z,101318.59
2023-02-05T05:35:20.040Z,101339.41
2023-02-05T05:37:48.753Z,101342.56
2023-02-05T05:40:29.226Z,101341.78
2023-02-05T05:43:07.846Z,101350.81
2023-02-05T05:45:36.603Z,101351.28
2023-02-05T05:48:05.759Z,101361.28
2023-02-05T05:50:34.468Z,101363.88
2023-02-05T05:53:03.530Z,101377.84
2023-02-05T05:55:33.902Z,101383.84
2023-02-05T05:58:02.883Z,101379.34
2023-02-05T06:00:31.612Z,101379.22
2023-02-05T06:03:00.552Z,101382.47
2023-02-05T06:05:29.186Z,101380.44
2023-02-05T06:07:57.984Z,101390.69
2023-02-05T06:10:27.100Z,101387.47
2023-02-05T06:12:58.169Z,101388.03
2023-02-05T06:15:27.420Z,101383.75
2023-02-05T06:17:56.219Z,101394.34
2023-02-05T06:20:25.214Z,101398.47
2023-02-05T06:22:53.953Z,101399.47
2023-02-05T06:25:22.714Z,101384.78
2023-02-05T06:27:51.386Z,101385.88
2023-02-05T06:30:21.820Z,101382.63
2023-02-05T06:32:50.603Z,101391.66
2023-02-05T06:35:19.621Z,101385.88
2023-02-05T06:37:48.841Z,101386.09
2023-02-05T06:40:22.635Z,101386.69
2023-02-05T06:42:51.439Z,101392.69
2023-02-05T06:45:21.605Z,101405.75
2023-02-05T06:47:53.109Z,101382.88
2023-02-05T06:50:21.863Z,101398.34
2023-02-05T06:52:51.498Z,101399.88
2023-02-05T06:55:20.430Z,101404.22
2023-02-05T06:57:49.175Z,101406.56
2023-02-05T07:00:19.175Z,101408.41
2023-02-05T07:02:49.419Z,101404.03
2023-02-05T07:05:18.159Z,101403.16
2023-02-05T07:07:48.999Z,101403.56
2023-02-05T07:10:18.983Z,101401.59
2023-02-05T07:12:47.668Z,101401.56
2023-02-05T07:15:16.598Z,101409.53
2023-02-05T07:17:45.400Z,101412.44
2023-02-05T07:20:17.132Z,101413.72
2023-02-05T07:22:48.462Z,101413.72
2023-02-05T07:25:17.451Z,101418.06
2023-02-05T07:27:46.269Z,101414.06
2023-02-05T07:30:16.308Z,101411.16
2023-02-05T07:32:45.076Z,101406.16
2023-02-05T07:35:13.764Z,101416.94
2023-02-05T07:37:43.873Z,101418.44
2023-02-05T07:40:13.434Z,101419.53
2023-02-05T07:42:42.165Z,101415.97
2023-02-05T07:45:11.689Z,101421.41
2023-02-05T07:47:40.404Z,101421.72
2023-02-05T07:50:09.965Z,101422.50
2023-02-05T07:52:38.714Z,101419.03
2023-02-05T07:55:10.313Z,101416.91
2023-02-05T07:57:39.104Z,101411.41
2023-02-05T08:00:09.885Z,101414.56
2023-02-05T08:02:41.614Z,101405.97
2023-02-05T08:05:10.834Z,101400.06
2023-02-05T08:07:40.053Z,101412.06
2023-02-05T08:10:14.769Z,101414.00
2023-02-05T08:12:43.515Z,101413.25
2023-02-05T08:15:12.474Z,101411.88
2023-02-05T08:17:41.367Z,101419.81
2023-02-05T08:20:11.141Z,101423.66
2023-02-05T08:22:41.923Z,101425.97
2023-02-05T08:25:15.150Z,101424.25
2023-02-05T08:27:44.660Z,101426.19
2023-02-05T08:30:15.792Z,101423.09
2023-02-05T08:32:48.397Z,101423.38
2023-02-05T08:35:17.481Z,101412.06
2023-02-05T08:37:46.134Z,101412.94
2023-02-05T08:40:16.374Z,101407.41
2023-02-05T08:42:45.744Z,101419.44
2023-02-05T08:45:14.461Z,101412.84
2023-02-05T08:47:43.129Z,101419.22
2023-02-05T08:50:12.499Z,101412.25
2023-02-05T08:52:41.236Z,101420.38
2023-02-05T08:55:10.220Z,101427.34
2023-02-05T08:57:40.725Z,101432.59
2023-02-05T09:00:10.695Z,101423.00
2023-02-05T09:02:39.499Z,101416.13
2023-02-05T09:05:09.740Z,101408.56
2023-02-05T09:07:40.498Z,101417.19
2023-02-05T09:10:10.445Z,101423.31
2023-02-05T09:12:41.057Z,101427.34
2023-02-05T09:15:11.114Z,101415.13
2023-02-05T09:17:39.851Z,101418.72
2023-02-05T09:20:09.525Z,101422.59
2023-02-05T09:22:38.846Z,101418.81
2023-02-05T09:25:08.541Z,101417.28
2023-02-05T09:27:37.165Z,101421.25
2023-02-05T09:30:08.225Z,101423.47
2023-02-05T09:32:37.099Z,101423.47
2023-02-05T09:35:05.943Z,101433.13
2023-02-05T09:37:34.676Z,101425.19
2023-02-05T09:40:20.855Z,101433.72
2023-02-05T09:43:00.917Z,101430.63
2023-02-05T09:45:50.057Z,101432.19
2023-02-05T09:48:50.043Z,101428.88
2023-02-05T09:51:23.274Z,101417.47
2023-02-05T09:53:58.962Z,101414.56
2023-02-05T09:56:29.639Z,101409.16
2023-02-05T09:59:00.046Z,101413.69
2023-02-05T10:01:42.979Z,101406.53
2023-02-05T10:04:12.423Z,101410.72
2023-02-05T10:07:06.882Z,101406.84
2023-02-05T10:09:49.410Z,101412.63
2023-02-05T10:12:34.177Z,101411.28
2023-02-05T10:15:29.015Z,101406.72
2023-02-05T10:18:11.305Z,101412.81
2023-02-05T10:20:55.912Z,101407.78
2023-02-05T10:23:45.025Z,101404.97
2023-02-05T10:26:16.021Z,101398.47
2023-02-05T10:29:10.788Z,101386.47
2023-02-05T10:31:45.201Z,101393.78
2023-02-05T10:34:33.582Z,101382.59
2023-02-05T10:39:36.971Z,101384.50
2023-02-05T10:42:16.264Z,101381.59
2023-02-05T10:44:48.029Z,101372.78
2023-02-05T10:47:24.537Z,101343.22
2023-02-05T10:49:59.673Z,101371.50
2023-02-05T10:52:28.699Z,101371.50
2023-02-05T10:54:57.446Z,101362.88
2023-02-05T10:57:29.948Z,101364.44
2023-02-05T11:00:03.650Z,101358.91
2023-02-05T11:02:39.662Z,101352.78
2023-02-05T11:05:23.023Z,101361.31
2023-02-05T11:07:53.807Z,101358.06
2023-02-05T11:10:25.010Z,101347.16
2023-02-05T11:12:56.697Z,101360.22
2023-02-05T11:15:28.121Z,101349.66
2023-02-05T11:18:00.329Z,101349.91
2023-02-05T11:20:34.007Z,101351.56
2023-02-05T11:23:17.526Z,101358.78
2023-02-05T11:25:54.552Z,101357.19
2023-02-05T11:28:27.959Z,101355.59
2023-02-05T11:30:57.862Z,101344.38
2023-02-05T11:33:31.573Z,101336.56
2023-02-05T11:36:08.385Z,101342.66
2023-02-05T11:38:45.794Z,101332.81
2023-02-05T11:41:28.892Z,101328.59
2023-02-05T11:44:00.312Z,101323.19
2023-02-05T11:46:33.733Z,101324.91
2023-02-05T11:49:05.120Z,101326.66
2023-02-05T11:51:55.797Z,101327.34
2023-02-05T11:54:29.938Z,101331.88
2023-02-05T11:57:08.222Z,101329.91
2023-02-05T11:59:37.905Z,101325.22
2023-02-05T12:02:22.119Z,101335.00
2023-02-05T12:04:52.603Z,101324.56
2023-02-05T12:07:25.053Z,101325.44
2023-02-05T12:09:59.606Z,101329.47
2023-02-05T12:12:35.915Z,101304.91
2023-02-05T12:15:16.830Z,101322.97
2023-02-05T12:17:54.317Z,101327.28
2023-02-05T12:20:30.235Z,101319.09
2023-02-05T12:23:20.406Z,101316.72
2023-02-05T12:26:00.162Z,101306.00
2023-02-05T12:28:41.957Z,101306.66
2023-02-05T12:31:22.431Z,101308.22
2023-02-05T12:34:11.379Z,101303.09
2023-02-05T12:36:58.494Z,101304.63
2023-02-05T12:39:40.238Z,101302.56
2023-02-05T12:42:25.691Z,101303.00
2023-02-05T12:45:26.163Z,101307.06
2023-02-05T12:48:20.411Z,101307.88
2023-02-05T12:51:08.776Z,101308.41
2023-02-05T12:53:53.215Z,101303.53
2023-02-05T12:56:45.335Z,101302.47
2023-02-05T12:59:19.016Z,101296.94
2023-02-05T13:01:52.470Z,101287.22
2023-02-05T13:04:29.915Z,101293.88
2023-02-05T13:07:05.823Z,101289.03
2023-02-05T13:09:45.203Z,101288.56
2023-02-05T13:12:19.344Z,101291.94
2023-02-05T13:14:59.202Z,101284.88
2023-02-05T13:17:30.172Z,101293.22
2023-02-05T13:20:03.203Z,101290.09
2023-02-05T13:22:48.631Z,101295.41
2023-02-05T13:25:38.238Z,101300.03
2023-02-05T13:28:40.636Z,101308.94
2023-02-05T13:31:16.984Z,101303.19
2023-02-05T13:33:46.273Z,101310.31
2023-02-05T13:36:42.862Z,101299.63
2023-02-05T13:39:34.569Z,101309.25
2023-02-05T13:42:30.204Z,101310.53
2023-02-05T13:45:38.409Z,101300.75
2023-02-05T13:48:43.030Z,101307.88
2023-02-05T13:51:35.347Z,101301.13
2023-02-05T13:54:26.809Z,101299.72
2023-02-05T13:57:14.232Z,101299.19
2023-02-05T13:59:51.811Z,101303.13
2023-02-05T14:02:33.609Z,101295.63
2023-02-05T14:05:04.382Z,101298.66
2023-02-05T14:07:36.688Z,101299.03
2023-02-05T14:10:06.616Z,101298.31
2023-02-05T14:12:38.295Z,101299.50
2023-02-05T14:15:26.329Z,101300.03
2023-02-05T14:17:57.312Z,101298.84
2023-02-05T14:20:35.747Z,101304.88
2023-02-05T14:23:13.405Z,101302.69
2023-02-05T14:26:08.638Z,101303.69
2023-02-05T14:28:51.925Z,101302.53
2023-02-05T14:31:42.409Z,101300.06
2023-02-05T14:34:32.911Z,101295.25
2023-02-05T14:37:03.692Z,101297.19
2023-02-05T14:39:34.906Z,101302.78
2023-02-05T14:42:06.817Z,101302.38
2023-02-05T14:44:40.963Z,101307.03
2023-02-05T14:47:22.417Z,101307.72
2023-02-05T14:49:53.349Z,101302.19
2023-02-05T14:52:29.989Z,101310.19
2023-02-05T14:55:03.531Z,101300.25
2023-02-05T14:57:43.060Z,101307.81
2023-02-05T15:00:22.539Z,101307.47
2023-02-05T15:03:32.421Z,101298.44
2023-02-05T15:06:05.684Z,101301.00
2023-02-05T15:08:46.040Z,101306.72
2023-02-05T15:11:28.661Z,101306.97
2023-02-05T15:14:32.876Z,101310.16
2023-02-05T15:17:23.427Z,101312.56
2023-02-05T15:19:56.962Z,101323.94
2023-02-05T15:22:31.267Z,101318.50
2023-02-05T15:25:03.783Z,101317.44
2023-02-05T15:27:42.977Z,101319.38
2023-02-05T15:30:19.906Z,101323.34
2023-02-05T15:32:53.776Z,101321.38
2023-02-05T15:35:26.221Z,101322.72
2023-02-05T15:37:57.944Z,101320.19
2023-02-05T15:40:32.290Z,101326.25
2023-02-05T15:43:02.846Z,101335.22
2023-02-05T15:45:34.626Z,101324.66
2023-02-05T15:48:07.626Z,101337.47
2023-02-05T15:50:39.383Z,101338.56
2023-02-05T15:53:11.437Z,101339.97
2023-02-05T15:55:41.684Z,101350.69
2023-02-05T15:58:16.848Z,101335.97
2023-02-05T16:00:48.023Z,101339.25
2023-02-05T16:03:27.786Z,101338.28
2023-02-05T16:05:57.319Z,101336.88
2023-02-05T16:08:28.542Z,101341.00
2023-02-05T16:11:02.486Z,101329.47
2023-02-05T16:13:31.488Z,101349.31
2023-02-05T16:16:06.232Z,101344.09
2023-02-05T16:18:41.278Z,101351.41
2023-02-05T16:21:17.806Z,101362.41
2023-02-05T16:23:52.965Z,101364.28
2023-02-05T16:26:28.585Z,101371.34
2023-02-05T16:28:59.797Z,101373.31
2023-02-05T16:31:30.803Z,101368.09
2023-02-05T16:34:03.624Z,101374.16
2023-02-05T16:36:36.014Z,101381.50
2023-02-05T16:39:08.502Z,101390.72
2023-02-05T16:41:41.653Z,101389.66
2023-02-05T16:44:31.784Z,101397.69
2023-02-05T16:47:13.090Z,101400.09
2023-02-05T16:49:42.861Z,101404.31
2023-02-05T16:52:30.993Z,101397.69
2023-02-05T16:55:00.618Z,101408.34
2023-02-05T16:57:33.801Z,101409.38
2023-02-05T17:00:06.399Z,101414.19
2023-02-05T17:02:39.987Z,101402.91
2023-02-05T17:05:23.543Z,101408.53
2023-02-05T17:07:57.372Z,101415.78
2023-02-05T17:10:26.572Z,101414.56
2023-02-05T17:12:58.685Z,101419.34
2023-02-05T17:15:40.382Z,101425.88
2023-02-05T17:18:24.589Z,101418.91
2023-02-05T17:20:53.466Z,101428.91
2023-02-05T17:23:22.194Z,101435.66
2023-02-05T17:25:57.108Z,101435.66
2023-02-05T17:28:29.988Z,101443.94
2023-02-05T17:30:59.871Z,101440.41
2023-02-05T17:33:30.137Z,101436.09
2023-02-05T17:35:59.168Z,101437.81
2023-02-05T17:38:27.899Z,101444.22
2023-02-05T17:41:10.752Z,101436.59
2023-02-05T17:43:41.037Z,101440.16
2023-02-05T17:46:14.297Z,101440.78
2023-02-05T17:48:44.892Z,101439.56
2023-02-05T17:51:20.902Z,101447.81
2023-02-05T17:53:50.232Z,101451.59
2023-02-05T17:56:21.762Z,101447.84
2023-02-05T17:58:53.483Z,101449.38
2023-02-05T18:01:22.667Z,101453.78
2023-02-05T18:03:51.453Z,101449.94
2023-02-05T18:06:20.801Z,101450.19
2023-02-05T18:08:49.510Z,101454.31
2023-02-05T18:11:18.166Z,101459.41
2023-02-05T18:13:46.894Z,101466.72
2023-02-05T18:16:17.150Z,101459.00
2023-02-05T18:18:45.941Z,101484.59
2023-02-05T18:21:14.874Z,101486.47
2023-02-05T18:23:43.795Z,101491.47
2023-02-05T18:26:12.452Z,101492.09
2023-02-05T18:28:41.296Z,101490.13
2023-02-05T18:31:11.570Z,101478.75
2023-02-05T18:33:42.453Z,101490.25
2023-02-05T18:36:13.094Z,101487.28
2023-02-05T18:38:43.161Z,101482.78
2023-02-05T18:41:14.785Z,101482.78
2023-02-05T18:43:43.813Z,101480.34
2023-02-05T18:46:15.769Z,101482.06
2023-02-05T18:48:46.352Z,101494.56
2023-02-05T18:51:17.306Z,101500.44
2023-02-05T18:53:47.803Z,101499.69
2023-02-05T18:56:18.443Z,101504.44
2023-02-05T18:58:53.757Z,101500.81
2023-02-05T19:01:22.804Z,101500.81
2023-02-05T19:03:55.057Z,101513.94
2023-02-05T19:06:24.370Z,101516.31
2023-02-05T19:08:53.143Z,101519.34
2023-02-05T19:11:25.254Z,101514.56
2023-02-05T19:13:57.700Z,101525.59
2023-02-05T19:16:27.320Z,101521.06
2023-02-05T19:18:57.984Z,101517.56
2023-02-05T19:21:29.701Z,101509.72
2023-02-05T19:24:01.178Z,101505.09
2023-02-05T19:26:31.200Z,101506.06
2023-02-05T19:29:01.244Z,101507.34
2023-02-05T19:31:32.061Z,101507.72
2023-02-05T19:34:03.007Z,101515.84
2023-02-05T19:36:32.358Z,101515.84
2023-02-05T19:39:01.658Z,101501.59
2023-02-05T19:41:30.470Z,101504.72
2023-02-05T19:44:02.883Z,101505.34
2023-02-05T19:46:33.563Z,101508.34
2023-02-05T19:49:05.598Z,101513.34
2023-02-05T19:51:34.770Z,101508.34
2023-02-05T19:54:05.310Z,101518.22
2023-02-05T19:56:37.973Z,101519.84
2023-02-05T19:59:07.483Z,101522.84
2023-02-05T20:01:38.379Z,101514.31
2023-02-05T20:04:16.014Z,101514.09
2023-02-05T20:06:47.126Z,101514.09
2023-02-05T20:09:16.750Z,101511.72
2023-02-05T20:11:46.238Z,101509.22
2023-02-05T20:14:15.615Z,101508.09
2023-02-05T20:16:45.691Z,101498.09
2023-02-05T20:19:18.435Z,101506.34
2023-02-05T20:21:48.007Z,101512.81
2023-02-05T20:24:17.479Z,101516.06
2023-02-05T20:26:48.030Z,101523.69
2023-02-05T20:29:27.199Z,101532.53
2023-02-05T20:31:57.611Z,101547.28
2023-02-05T20:34:31.263Z,101548.53
2023-02-05T20:37:04.416Z,101543.53
2023-02-05T20:39:35.612Z,101551.25
2023-02-05T20:42:04.889Z,101544.50
2023-02-05T20:44:36.566Z,101541.72
2023-02-05T20:47:06.005Z,101550.72
2023-02-05T20:49:42.971Z,101554.22
2023-02-05T20:52:13.486Z,101549.50
2023-02-05T20:54:43.451Z,101542.84
2023-02-05T20:57:12.394Z,101550.22
2023-02-05T20:59:41.915Z,101556.66
2023-02-05T21:02:11.679Z,101558.94
2023-02-05T21:04:42.072Z,101553.09
2023-02-05T21:07:10.854Z,101565.19
2023-02-05T21:09:39.471Z,101568.41
2023-02-05T21:12:09.343Z,101566.16
2023-02-05T21:14:38.784Z,101565.88
2023-02-05T21:17:09.418Z,101565.59
2023-02-05T21:19:38.162Z,101566.88
2023-02-05T21:22:08.255Z,101571.31
2023-02-05T21:24:37.092Z,101573.41
2023-02-05T21:27:05.813Z,101568.75
2023-02-05T21:29:34.856Z,101581.38
2023-02-05T21:32:03.497Z,101587.00
2023-02-05T21:34:32.247Z,101595.19
2023-02-05T21:37:01.035Z,101605.78
2023-02-05T21:39:31.370Z,101605.38
2023-02-05T21:42:00.141Z,101609.38
2023-02-05T21:44:29.078Z,101614.63
2023-02-05T21:46:57.901Z,101620.91
2023-02-05T21:49:26.533Z,101625.22
2023-02-05T21:51:56.038Z,101632.00
2023-02-05T21:54:25.778Z,101630.06
2023-02-05T21:56:56.449Z,101638.63
2023-02-05T21:59:25.425Z,101638.34
2023-02-05T22:01:54.176Z,101645.09
2023-02-05T22:04:23.322Z,101647.38
2023-02-05T22:06:52.436Z,101654.66
2023-02-05T22:09:21.595Z,101651.41
2023-02-05T22:11:52.034Z,101644.81
2023-02-05T22:14:22.220Z,101643.72
2023-02-05T22:16:51.014Z,101642.38
2023-02-05T22:19:19.723Z,101657.34
2023-02-05T22:21:48.815Z,101658.47
2023-02-05T22:24:19.631Z,101667.19
2023-02-05T22:26:48.975Z,101672.19
2023-02-05T22:29:19.221Z,101659.22
2023-02-05T22:31:51.624Z,101659.03
2023-02-05T22:34:20.419Z,101624.09
2023-02-05T22:36:49.291Z,101649.66
2023-02-05T22:39:18.207Z,101659.09
2023-02-05T22:41:46.890Z,101658.06
2023-02-05T22:44:15.708Z,101659.28
2023-02-05T22:46:46.036Z,101658.56
2023-02-05T22:49:16.502Z,101664.16
2023-02-05T22:51:45.938Z,101666.66
2023-02-05T22:54:16.070Z,101664.13
2023-02-05T22:56:44.903Z,101652.84
2023-02-05T22:59:14.145Z,101669.81
2023-02-05T23:01:42.915Z,101668.34
2023-02-05T23:04:12.049Z,101678.88
2023-02-05T23:06:45.409Z,101674.50
2023-02-05T23:09:16.534Z,101665.13
2023-02-05T23:11:45.751Z,101668.91
2023-02-05T23:14:16.259Z,101666.84
2023-02-05T23:16:47.250Z,101671.31
2023-02-05T23:19:19.330Z,101670.53
2023-02-05T23:21:50.301Z,101671.44
2023-02-05T23:24:19.480Z,101666.59
2023-02-05T23:26:51.259Z,101673.59
2023-02-05T23:29:20.549Z,101673.00
2023-02-05T23:31:49.353Z,101673.31
2023-02-05T23:34:18.401Z,101678.03
2023-02-05T23:36:48.504Z,101684.50
2023-02-05T23:39:17.293Z,101678.78
2023-02-05T23:41:46.044Z,101682.47
2023-02-05T23:44:16.237Z,101673.66
2023-02-05T23:46:45.572Z,101667.84
2023-02-05T23:49:15.529Z,101672.59
2023-02-05T23:51:44.790Z,101676.84
2023-02-05T23:54:15.166Z,101679.88
2023-02-05T23:56:44.040Z,101672.41
2023-02-05T23:59:13.515Z,101671.09
